Richland Center, WI (53581)

11:47 PM CDT on August 31, 2015 (GMT -0500)
KWIRICHL5 | | Change Station
CLOSE
Current Station
Personal Weather Station
Location: Richland Center, WI
Elevation: 741 ft
Nearby Weather Stations

Elev 741 ft 43.33 °N, 90.39 °W | Updated 4 minutes ago

Clear
Clear
69.9 °F
Feels Like 69.9 °F
N
0.0
Wind Variable Wind from SSE
Gusts 0.0 mph

Today
High -- | Low -- °F
--% Chance of Precip.
Yesterday
High -- | Low -- °F
Precip. -- in
6:24 AM 7:38 PM
Waning Gibbous, 91% visible
Pressure 29.98 in
Visibility 6.0 miles
Clouds Clear
Dew Point 68 °F
Humidity 93%
Rainfall 0.01 in
Snow Depth Not available.
UV 0 out of 12
Pollen 10.40 out of 12
Air Quality Not available.
Flu Activity Not available.
METAR KOVS 010353Z AUTO 00000KT 6SM BR CLR 22/21 A2999 RMK AO2 SLP152 T02220206
Pressure 29.98 in
Visibility 6.0 miles
Clouds Clear
Dew Point 68 °F
Humidity 93%
Rainfall 0.01 in
Snow Depth Not available.
UV 0 out of 12
Pollen 10.40 out of 12
Air Quality Not available.
Flu Activity Not available.
METAR KOVS 010353Z AUTO 00000KT 6SM BR CLR 22/21 A2999 RMK AO2 SLP152 T02220206

10-Day Weather Forecast

×

Almanac

Astronomy

Aug. 31, 2015 Rise Set
Actual Time
Civil Twilight
Nautical Twilight
Astronomical Twilight
Moon
Length of Visible Light
Length of Day
Tomorrow will be .
, % of the Moon is Illuminated

Today's Extremes

State Highs State Lows

Community

WunderPhotos

Upload Photos

1,851,479 photos uploaded!

WunderBlogs® & News

Nearby

Air Quality

  Air Quality AQ Index Pollutant
Not available.

Snow Depth

Station Depth Elevation

Earthquake Activity

City Distance Mag. Time & Date
Minimum magnitude displayed is 2.5.

Coastal Water Temperatures

Place Temperature

Stations

Nearby Weather Stations

Station Location Temp. Windchill Dew Point Humidity Wind Precip. Elev Updated Type